Portada
METAR-TAF:

METAR-TAF

Aeroports :

Aeroport Internacional de Šiauliai

Šiauliai, Lituània

latitud: 55-53-38N, longitud: 023-23-42E, altitud: 135 m

Observació

L'informe es va fer fa 20 minuts, a les 17:20 UTC
Vent 4 kt del Sud/Sud-Oest, variant entre Sud-Est i Sud-Oest
Temperatura 21°C
Humitat 40%
Pressió 1017 hPa
Visibilitat 10 km o més
sense núvols per sota de 1500 mi sense presència de cumulonimbus.

METAR: EYSA 141720Z 20004KT 140V230 CAVOK 21/07 Q1017 BLU NOSIG

Hora: 20:40 (17:40 UTC)

Pronòstic

L'informe es va fer fa 40 minuts, a les 17:00 UTC
Pronòstic vàlid del 14 a les 18 UTC al 15 a les 03 UTC
Vent 5 kt amb direcció variable
Visibilitat 10 km o més
sense núvols per sota de 1500 mi sense presència de cumulonimbus.

TAF: EYSA 141700Z 1418/1503 VRB05KT CAVOK

Observacions i pronòstics meteorològics de més de 4000 aeroports (METAR i TAF).

Les estacions disponibles són els punts grocs i vermells al mapa.

Posi el ratolí al punt desitjat per veure el nom de l'estació.

Feu clic per veure les observacions i els pronòstics meteorològics.

Per canviar el mapa: feu clic els botons verds amb una creu de color negre per apropar; al botó verd amb un guió per allunyar la imatge; o en les fletxes verdes per a mapes adjacents.


METAR-TAF: